Time;durP1;ratioP1;P1;durP2;ratioP2;P2;SDS_P1;SDS_P2;PMS_P1;PMS_P2;Temp;Humidity;BMP_temperature;BMP_pressure;BME280_temperature;BME280_humidity;BME280_pressure;Samples;Min_cycle;Max_cycle;Signal;HPM_P1;HPM_P2
2021/09/29 00:00:58;;;;;;;7.85;5.33;;;;;;;8.82;92.88;101149.21;1674777;85;21055;-76
2021/09/29 00:03:25;;;;;;;5.95;4.62;;;;;;;8.81;92.95;101149.41;1650899;85;21151;-76
2021/09/29 00:05:51;;;;;;;5.22;4.35;;;;;;;8.75;93.09;101146.50;1652454;85;20982;-79
2021/09/29 00:08:18;;;;;;;6.45;5.03;;;;;;;8.69;93.10;101152.66;1656973;85;21013;-76
2021/09/29 00:10:46;;;;;;;6.47;4.65;;;;;;;8.63;93.14;101150.78;1647279;87;21063;-77
2021/09/29 00:13:12;;;;;;;12.85;5.12;;;;;;;8.55;93.43;101150.13;1683279;84;21053;-73
2021/09/29 00:15:38;;;;;;;11.55;4.87;;;;;;;8.47;93.69;101137.74;1650994;86;21094;-72
2021/09/29 00:18:05;;;;;;;11.35;5.67;;;;;;;8.43;94.04;101141.03;1664704;86;21533;-73
2021/09/29 00:20:31;;;;;;;6.70;5.08;;;;;;;8.44;94.24;101140.00;1673425;85;21512;-76
2021/09/29 00:22:57;;;;;;;4.83;4.37;;;;;;;8.41;94.27;101145.23;1720700;83;21002;-74
2021/09/29 00:25:24;;;;;;;9.00;5.15;;;;;;;8.37;94.44;101148.52;1710143;83;21030;-72
2021/09/29 00:27:50;;;;;;;6.30;4.67;;;;;;;8.29;94.60;101146.82;1723986;83;21370;-73
2021/09/29 00:30:17;;;;;;;5.67;4.55;;;;;;;8.24;95.02;101150.61;1724089;83;20927;-72
2021/09/29 00:32:44;;;;;;;5.50;4.72;;;;;;;8.21;95.23;101149.64;1720229;83;21014;-75
2021/09/29 00:35:14;;;;;;;8.23;5.65;;;;;;;8.19;95.37;101151.71;1686441;84;21082;-74
2021/09/29 00:37:40;;;;;;;5.62;4.90;;;;;;;8.15;95.54;101147.23;1682100;85;20999;-71
2021/09/29 00:40:08;;;;;;;7.87;5.05;;;;;;;8.10;95.67;101159.09;1679000;85;21054;-71
2021/09/29 00:42:34;;;;;;;6.47;5.87;;;;;;;8.08;95.90;101153.59;1675489;85;21136;-71
2021/09/29 00:45:00;;;;;;;5.30;4.67;;;;;;;8.05;95.92;101153.50;1723962;83;21038;-71
2021/09/29 00:47:29;;;;;;;5.12;4.50;;;;;;;8.01;96.14;101152.20;1703335;83;21634;-71
2021/09/29 00:49:57;;;;;;;6.97;5.20;;;;;;;7.98;96.45;101149.94;1724170;83;21014;-71
2021/09/29 00:52:23;;;;;;;7.45;4.75;;;;;;;8.01;96.47;101153.55;1722510;83;20972;-71
2021/09/29 00:54:50;;;;;;;6.83;4.75;;;;;;;8.00;96.44;101151.92;1703188;83;20966;-71
2021/09/29 00:57:16;;;;;;;6.53;5.33;;;;;;;7.97;96.41;101150.95;1723598;83;21046;-76
2021/09/29 00:59:43;;;;;;;6.62;5.15;;;;;;;7.90;96.40;101147.42;1727632;82;21540;-75
2021/09/29 01:02:10;;;;;;;8.70;4.45;;;;;;;7.85;96.52;101152.03;1729547;82;21579;-75
2021/09/29 01:04:36;;;;;;;5.08;4.37;;;;;;;7.83;96.84;101150.55;1693385;84;21541;-73
2021/09/29 01:07:24;;;;;;;4.92;4.33;;;;;;;7.78;97.03;101147.64;1691167;84;21067;-73
2021/09/29 01:10:27;;;;;;;5.10;4.60;;;;;;;7.72;97.16;101155.14;1691219;84;22231;-75
2021/09/29 01:13:19;;;;;;;9.53;4.97;;;;;;;7.70;97.45;101158.51;1705161;83;21515;-74
2021/09/29 01:15:48;;;;;;;7.70;5.15;;;;;;;7.71;97.63;101156.98;1678597;84;21086;-76
2021/09/29 01:18:22;;;;;;;7.08;4.42;;;;;;;7.69;97.64;101156.84;1649039;87;22334;-75
2021/09/29 01:20:56;;;;;;;7.78;5.20;;;;;;;7.67;97.60;101158.41;1649095;86;21066;-75
2021/09/29 01:23:37;;;;;;;8.23;4.83;;;;;;;7.66;97.67;101156.73;1657834;86;21016;-75
2021/09/29 01:26:14;;;;;;;7.65;5.80;;;;;;;7.68;97.68;101160.55;1668339;84;21653;-76
2021/09/29 01:29:04;;;;;;;5.12;4.60;;;;;;;7.69;97.61;101162.20;1676549;84;21083;-74
2021/09/29 01:31:33;;;;;;;11.22;5.40;;;;;;;7.69;97.61;101159.53;1696044;84;21447;-75
2021/09/29 01:33:59;;;;;;;7.37;4.60;;;;;;;7.66;97.41;101163.44;1653669;84;21102;-75
2021/09/29 01:36:25;;;;;;;7.62;4.85;;;;;;;7.65;97.36;101166.30;1687786;84;20940;-75
2021/09/29 01:38:55;;;;;;;4.22;3.83;;;;;;;7.63;97.33;101170.50;1687659;84;20983;-73
2021/09/29 01:41:24;;;;;;;4.80;4.40;;;;;;;7.59;97.36;101175.93;1667940;84;21031;-75
2021/09/29 01:43:52;;;;;;;5.62;5.00;;;;;;;7.48;97.52;101175.14;1678930;84;21296;-74
2021/09/29 01:46:19;;;;;;;9.10;3.90;;;;;;;7.43;97.79;101177.03;1687587;84;21027;-76
2021/09/29 01:49:06;;;;;;;4.75;3.80;;;;;;;7.44;98.09;101179.20;1687774;84;21031;-74
2021/09/29 01:51:38;;;;;;;5.95;4.70;;;;;;;7.47;98.18;101189.54;1676469;84;20974;-76
2021/09/29 01:54:05;;;;;;;4.42;4.03;;;;;;;7.46;98.13;101190.55;1694873;84;21641;-75
2021/09/29 01:56:32;;;;;;;5.15;4.65;;;;;;;7.41;98.13;101185.78;1676691;84;21139;-77
2021/09/29 01:59:01;;;;;;;6.33;4.15;;;;;;;7.40;98.13;101189.98;1688231;84;20991;-75
2021/09/29 02:01:27;;;;;;;5.58;4.53;;;;;;;7.37;98.23;101190.38;1684628;84;21029;-75
2021/09/29 02:03:54;;;;;;;5.95;3.92;;;;;;;7.38;98.31;101190.70;1678945;84;21037;-84
2021/09/29 02:06:22;;;;;;;5.17;3.87;;;;;;;7.35;98.45;101194.56;1673530;84;21509;-83
2021/09/29 02:08:48;;;;;;;3.75;3.40;;;;;;;7.34;98.54;101194.24;1673809;84;21907;-81
2021/09/29 02:11:14;;;;;;;5.65;3.62;;;;;;;7.32;98.54;101194.13;1648491;86;21002;-80
2021/09/29 02:13:41;;;;;;;5.87;4.22;;;;;;;7.31;98.51;101196.48;1678587;84;20961;-80
2021/09/29 02:16:07;;;;;;;5.25;4.15;;;;;;;7.30;98.57;101185.45;1694519;83;20983;-79
2021/09/29 02:18:34;;;;;;;4.03;3.62;;;;;;;7.29;98.65;101189.97;1723974;83;21110;-79
2021/09/29 02:21:00;;;;;;;4.30;3.90;;;;;;;7.27;98.71;101191.20;1720811;83;21154;-81
2021/09/29 02:23:27;;;;;;;7.72;5.08;;;;;;;7.23;98.68;101198.79;1714874;83;20998;-80
2021/09/29 02:25:53;;;;;;;4.72;4.22;;;;;;;7.20;98.70;101198.32;1717255;83;20992;-80
2021/09/29 02:28:19;;;;;;;12.82;4.15;;;;;;;7.13;98.90;101196.10;1724187;83;20927;-80
2021/09/29 02:30:46;;;;;;;5.17;4.67;;;;;;;7.09;98.94;101205.03;1723440;82;21048;-80
2021/09/29 02:33:12;;;;;;;5.85;4.20;;;;;;;7.06;99.36;101208.56;1717828;83;21901;-80
2021/09/29 02:35:38;;;;;;;5.85;4.80;;;;;;;7.00;99.67;101204.30;1721719;83;21542;-79
2021/09/29 02:38:04;;;;;;;7.10;5.08;;;;;;;7.01;99.82;101207.30;1721362;83;20942;-73
2021/09/29 02:40:31;;;;;;;7.40;4.97;;;;;;;7.01;100.00;101211.30;1712395;83;21034;-74
2021/09/29 02:42:57;;;;;;;8.00;5.50;;;;;;;7.00;100.00;101216.33;1716630;83;21045;-74
2021/09/29 02:45:24;;;;;;;5.75;4.95;;;;;;;7.00;100.00;101207.51;1723927;83;21295;-75
2021/09/29 02:47:50;;;;;;;4.90;4.40;;;;;;;7.00;100.00;101206.97;1703196;83;21138;-75
2021/09/29 02:50:17;;;;;;;6.50;4.78;;;;;;;6.98;100.00;101213.03;1723935;83;20888;-74
2021/09/29 02:52:44;;;;;;;5.47;4.80;;;;;;;6.98;100.00;101211.70;1716766;82;20947;-75
2021/09/29 02:55:11;;;;;;;7.72;4.80;;;;;;;6.98;100.00;101217.55;1723887;83;21007;-74
2021/09/29 02:57:37;;;;;;;4.00;3.67;;;;;;;7.00;100.00;101218.20;1724071;83;21094;-75
2021/09/29 03:00:06;;;;;;;5.95;4.65;;;;;;;7.04;100.00;101224.00;1723054;83;21054;-78
2021/09/29 03:02:33;;;;;;;8.18;4.62;;;;;;;7.07;100.00;101223.61;1695430;83;21455;-77
2021/09/29 03:04:59;;;;;;;4.85;4.33;;;;;;;7.03;100.00;101226.34;1672812;84;21548;-77
2021/09/29 03:07:25;;;;;;;5.00;4.60;;;;;;;6.97;100.00;101228.76;1692391;84;21008;-77
2021/09/29 03:09:52;;;;;;;4.78;4.30;;;;;;;7.00;100.00;101224.89;1703494;83;21225;-78
2021/09/29 03:12:18;;;;;;;4.80;4.40;;;;;;;7.01;100.00;101221.17;1719789;82;21101;-77
2021/09/29 03:14:44;;;;;;;5.95;5.42;;;;;;;6.98;100.00;101222.91;1712580;83;21004;-78
2021/09/29 03:17:11;;;;;;;4.97;4.53;;;;;;;6.97;100.00;101226.09;1688496;84;21012;-78
2021/09/29 03:19:37;;;;;;;7.60;6.90;;;;;;;6.98;100.00;101227.75;1704608;84;21066;-77
2021/09/29 03:22:04;;;;;;;7.40;5.15;;;;;;;6.96;100.00;101235.62;1708107;83;22019;-78
2021/09/29 03:24:31;;;;;;;6.20;5.58;;;;;;;6.91;100.00;101236.19;1708289;83;21025;-78
2021/09/29 03:26:59;;;;;;;10.10;7.67;;;;;;;6.84;100.00;101237.14;1714529;83;20924;-80
2021/09/29 03:29:25;;;;;;;6.47;5.85;;;;;;;6.78;100.00;101235.20;1716782;83;21049;-79
2021/09/29 03:31:52;;;;;;;5.97;5.33;;;;;;;6.72;100.00;101243.47;1716290;83;21043;-80
2021/09/29 03:34:18;;;;;;;6.35;4.37;;;;;;;6.74;100.00;101245.45;1683620;84;21148;-82
2021/09/29 03:36:44;;;;;;;5.62;5.12;;;;;;;6.74;100.00;101238.77;1704069;84;20956;-79
2021/09/29 03:39:11;;;;;;;7.55;4.67;;;;;;;6.73;100.00;101239.78;1704172;84;21524;-76
2021/09/29 03:41:37;;;;;;;6.97;4.78;;;;;;;6.70;100.00;101244.17;1678594;85;21128;-75
2021/09/29 03:44:04;;;;;;;6.30;5.30;;;;;;;6.70;100.00;101243.34;1698900;83;21115;-75
2021/09/29 03:46:31;;;;;;;8.40;4.50;;;;;;;6.69;100.00;101245.19;1712303;83;21290;-79
2021/09/29 03:48:58;;;;;;;5.75;5.10;;;;;;;6.68;100.00;101246.19;1679757;84;21621;-79
2021/09/29 03:51:25;;;;;;;5.40;4.17;;;;;;;6.69;100.00;101248.36;1690680;83;21061;-79
2021/09/29 03:53:51;;;;;;;6.70;5.97;;;;;;;6.71;100.00;101242.34;1703852;84;20986;-78
2021/09/29 03:56:17;;;;;;;4.55;4.00;;;;;;;6.75;100.00;101246.29;1690901;83;21019;-79
2021/09/29 03:58:44;;;;;;;5.58;5.12;;;;;;;6.77;100.00;101252.27;1717766;83;22177;-79
2021/09/29 04:01:10;;;;;;;6.00;5.15;;;;;;;6.72;100.00;101251.48;1711330;83;21540;-77
2021/09/29 04:03:37;;;;;;;9.08;4.95;;;;;;;6.66;100.00;101248.24;1703620;84;21058;-78
2021/09/29 04:06:05;;;;;;;5.87;5.22;;;;;;;6.62;100.00;101251.47;1704643;84;20990;-78
2021/09/29 04:08:31;;;;;;;14.07;5.30;;;;;;;6.63;100.00;101254.45;1678891;84;21069;-75
2021/09/29 04:10:58;;;;;;;6.95;5.50;;;;;;;6.67;100.00;101258.40;1683634;83;21238;-75
2021/09/29 04:13:25;;;;;;;6.78;5.33;;;;;;;6.68;100.00;101262.23;1677845;85;21560;-75
2021/09/29 04:15:53;;;;;;;9.13;6.47;;;;;;;6.69;100.00;101253.20;1703905;83;21006;-77
2021/09/29 04:18:19;;;;;;;5.75;5.25;;;;;;;6.63;100.00;101255.78;1711734;83;21053;-76
2021/09/29 04:20:45;;;;;;;5.17;4.20;;;;;;;6.57;100.00;101256.84;1721750;83;21019;-76
2021/09/29 04:23:12;;;;;;;6.72;4.75;;;;;;;6.50;100.00;101258.61;1688779;84;21087;-75
2021/09/29 04:25:40;;;;;;;4.78;4.28;;;;;;;6.47;100.00;101264.84;1698836;83;21060;-75
2021/09/29 04:28:07;;;;;;;7.03;4.22;;;;;;;6.43;100.00;101268.38;1721580;83;21095;-75
2021/09/29 04:30:34;;;;;;;8.45;4.53;;;;;;;6.46;100.00;101268.52;1711808;83;21514;-73
2021/09/29 04:33:02;;;;;;;5.47;4.95;;;;;;;6.49;100.00;101277.50;1712097;83;20969;-74
2021/09/29 04:35:29;;;;;;;4.75;4.30;;;;;;;6.51;100.00;101278.16;1721464;83;21112;-74
2021/09/29 04:37:55;;;;;;;6.67;4.55;;;;;;;6.48;100.00;101275.83;1721527;83;21059;-74
2021/09/29 04:40:23;;;;;;;9.95;5.87;;;;;;;6.49;100.00;101284.18;1712553;83;21041;-76
2021/09/29 04:42:55;;;;;;;7.37;4.87;;;;;;;6.50;100.00;101286.68;1700412;83;21040;-73
2021/09/29 04:45:21;;;;;;;9.38;5.03;;;;;;;6.52;100.00;101293.19;1721615;83;21514;-72
2021/09/29 04:47:48;;;;;;;5.85;4.97;;;;;;;6.54;100.00;101291.14;1721460;83;21059;-73
2021/09/29 04:50:15;;;;;;;4.60;4.20;;;;;;;6.61;100.00;101295.25;1712227;83;21064;-73
2021/09/29 04:52:42;;;;;;;5.37;4.97;;;;;;;6.67;100.00;101294.49;1720609;83;21014;-73
2021/09/29 04:55:10;;;;;;;9.63;5.95;;;;;;;6.66;100.00;101294.20;1709165;84;22060;-73
2021/09/29 04:57:37;;;;;;;8.08;6.70;;;;;;;6.62;100.00;101292.91;1709372;84;21050;-74
2021/09/29 05:00:14;;;;;;;9.48;7.40;;;;;;;6.58;100.00;101295.94;1687528;84;21227;-73
2021/09/29 05:02:42;;;;;;;9.15;6.33;;;;;;;6.63;100.00;101297.22;1691378;84;21064;-74
2021/09/29 05:05:09;;;;;;;14.98;10.25;;;;;;;6.68;100.00;101305.02;1664767;84;21039;-74
2021/09/29 05:07:36;;;;;;;16.93;11.55;;;;;;;6.72;100.00;101306.30;1691582;84;21046;-74
2021/09/29 05:10:04;;;;;;;10.78;9.25;;;;;;;6.75;100.00;101302.44;1677157;84;21025;-73
2021/09/29 05:12:32;;;;;;;12.10;7.55;;;;;;;6.79;100.00;101300.55;1702050;83;21233;-74
2021/09/29 05:14:59;;;;;;;13.05;6.80;;;;;;;6.85;100.00;101311.84;1720335;83;20990;-74
2021/09/29 05:17:26;;;;;;;6.78;6.08;;;;;;;6.85;100.00;101307.84;1713305;83;21034;-74
2021/09/29 05:19:53;;;;;;;8.43;6.58;;;;;;;6.85;100.00;101307.00;1721147;83;21487;-73
2021/09/29 05:22:20;;;;;;;8.90;6.67;;;;;;;6.83;100.00;101311.19;1721650;83;21562;-72
2021/09/29 05:24:46;;;;;;;16.52;11.05;;;;;;;6.88;100.00;101308.79;1711266;83;22323;-72
2021/09/29 05:27:13;;;;;;;8.35;7.50;;;;;;;6.97;100.00;101314.36;1716851;83;21041;-74
2021/09/29 05:29:42;;;;;;;6.87;6.08;;;;;;;7.07;100.00;101319.92;1724231;83;21054;-73
2021/09/29 05:32:08;;;;;;;9.73;5.80;;;;;;;7.06;100.00;101312.41;1723987;83;20987;-72
2021/09/29 05:34:35;;;;;;;9.78;5.97;;;;;;;7.06;100.00;101319.09;1713338;82;21062;-73
2021/09/29 05:37:03;;;;;;;7.30;5.80;;;;;;;7.14;100.00;101317.66;1716037;82;23027;-74
2021/09/29 05:39:29;;;;;;;10.00;6.40;;;;;;;7.20;100.00;101321.41;1703280;83;21031;-74
2021/09/29 05:41:56;;;;;;;10.43;8.15;;;;;;;7.26;100.00;101317.48;1709290;83;21015;-77
2021/09/29 05:44:23;;;;;;;11.60;6.53;;;;;;;7.36;100.00;101327.89;1685534;84;21061;-76
2021/09/29 05:46:49;;;;;;;6.17;5.40;;;;;;;7.42;100.00;101325.30;1678842;85;21095;-76
2021/09/29 05:49:18;;;;;;;6.00;5.40;;;;;;;7.47;99.61;101323.39;1678889;85;20999;-76
2021/09/29 05:51:47;;;;;;;8.78;6.22;;;;;;;7.47;98.68;101328.75;1704416;83;21021;-76
2021/09/29 05:54:13;;;;;;;7.42;6.53;;;;;;;7.50;98.62;101331.03;1715539;83;20969;-75
2021/09/29 05:56:39;;;;;;;13.32;6.42;;;;;;;7.50;97.93;101333.71;1721427;83;21541;-74
2021/09/29 05:59:06;;;;;;;12.82;6.95;;;;;;;7.54;98.15;101330.13;1721408;83;21042;-75
2021/09/29 06:01:33;;;;;;;8.30;6.15;;;;;;;7.63;98.27;101334.34;1712061;83;21302;-74
2021/09/29 06:03:59;;;;;;;6.53;5.85;;;;;;;7.69;97.90;101339.78;1714543;83;20977;-74
2021/09/29 06:06:26;;;;;;;10.50;6.35;;;;;;;7.71;96.94;101338.27;1712317;83;21054;-74
2021/09/29 06:08:53;;;;;;;9.55;5.35;;;;;;;7.74;97.19;101339.21;1721696;82;21487;-74
2021/09/29 06:11:19;;;;;;;7.75;6.65;;;;;;;7.81;97.11;101336.94;1715569;83;21633;-75
2021/09/29 06:13:45;;;;;;;7.22;6.37;;;;;;;7.89;96.85;101340.81;1709272;83;21281;-74
2021/09/29 06:16:12;;;;;;;7.60;5.22;;;;;;;7.98;96.65;101340.67;1686517;84;20969;-75
2021/09/29 06:18:39;;;;;;;8.55;5.65;;;;;;;8.03;95.72;101344.44;1673273;84;21016;-74
2021/09/29 06:21:07;;;;;;;14.47;9.03;;;;;;;8.05;95.32;101342.91;1656601;86;21138;-73
2021/09/29 06:23:35;;;;;;;10.65;7.95;;;;;;;8.09;95.25;101341.00;1648500;86;21627;-74
2021/09/29 06:26:02;;;;;;;11.70;8.50;;;;;;;8.11;95.04;101342.95;1660048;86;20997;-76
2021/09/29 06:28:37;;;;;;;8.33;6.30;;;;;;;8.14;94.65;101337.73;1642378;86;21071;-75
2021/09/29 06:31:01;;;;;;;15.85;6.53;;;;;;;8.12;93.75;101339.77;1658920;85;21027;-76
2021/09/29 06:33:27;;;;;;;6.28;5.45;;;;;;;8.11;93.59;101340.78;1652056;85;21107;-75
2021/09/29 06:35:54;;;;;;;11.48;6.42;;;;;;;8.15;93.55;101340.20;1650175;86;21040;-75
2021/09/29 06:38:20;;;;;;;13.00;6.90;;;;;;;8.21;93.20;101340.77;1649824;87;21149;-75
2021/09/29 06:40:46;;;;;;;6.90;6.20;;;;;;;8.27;92.85;101339.17;1649861;87;21023;-74
2021/09/29 06:43:13;;;;;;;9.75;7.10;;;;;;;8.32;92.33;101343.47;1661053;85;21067;-74
2021/09/29 06:45:40;;;;;;;7.30;6.58;;;;;;;8.33;91.35;101346.48;1669678;85;21083;-73
2021/09/29 06:48:06;;;;;;;10.30;6.15;;;;;;;8.33;91.04;101351.01;1648363;87;21011;-74
2021/09/29 06:50:34;;;;;;;24.55;7.45;;;;;;;8.35;90.97;101355.64;1638065;87;21116;-74
2021/09/29 06:53:00;;;;;;;14.05;7.17;;;;;;;8.37;90.92;101354.45;1623850;87;21082;-72
2021/09/29 06:55:26;;;;;;;7.37;6.22;;;;;;;8.45;90.82;101361.50;1637152;85;21055;-74
2021/09/29 06:57:53;;;;;;;19.27;6.50;;;;;;;8.50;90.21;101360.41;1687172;84;21007;-72
2021/09/29 07:00:19;;;;;;;13.00;5.87;;;;;;;8.52;90.05;101364.56;1669677;85;21059;-72
2021/09/29 07:02:47;;;;;;;7.58;6.12;;;;;;;8.56;89.85;101354.27;1684739;84;20973;-74
2021/09/29 07:05:15;;;;;;;13.08;9.43;;;;;;;8.60;89.68;101359.55;1625873;87;21053;-74
2021/09/29 07:07:42;;;;;;;16.42;11.45;;;;;;;8.65;89.45;101359.28;1637588;87;21093;-72
2021/09/29 07:10:10;;;;;;;16.80;9.03;;;;;;;8.71;89.34;101359.85;1648343;87;21036;-73
2021/09/29 07:12:39;;;;;;;7.95;6.95;;;;;;;8.81;89.27;101364.86;1651370;85;21121;-73
2021/09/29 07:15:08;;;;;;;7.20;6.03;;;;;;;8.85;88.88;101362.61;1621508;87;21172;-73
2021/09/29 07:17:36;;;;;;;14.98;7.85;;;;;;;8.89;88.75;101367.89;1691344;84;20955;-72
2021/09/29 07:20:07;;;;;;;10.58;6.22;;;;;;;8.92;88.42;101362.95;1673957;84;20986;-71
2021/09/29 07:22:34;;;;;;;7.75;6.12;;;;;;;8.96;88.22;101364.23;1674073;84;21093;-72
2021/09/29 07:25:01;;;;;;;5.65;5.15;;;;;;;9.01;87.88;101367.16;1665324;85;21125;-70
2021/09/29 07:27:27;;;;;;;5.65;5.08;;;;;;;9.05;86.48;101365.72;1687541;84;21106;-73
2021/09/29 07:29:53;;;;;;;5.78;5.22;;;;;;;9.06;85.84;101367.39;1687551;84;20933;-77
2021/09/29 07:32:19;;;;;;;6.75;4.62;;;;;;;9.12;85.80;101361.70;1675711;84;21065;-77
2021/09/29 07:34:46;;;;;;;5.92;5.42;;;;;;;9.19;85.40;101359.39;1649707;85;21649;-77
2021/09/29 07:37:13;;;;;;;6.25;5.10;;;;;;;9.25;83.58;101360.96;1669704;85;21039;-76
2021/09/29 07:39:39;;;;;;;5.75;4.87;;;;;;;9.30;83.01;101357.16;1690359;84;21210;-73
2021/09/29 07:42:06;;;;;;;10.70;5.17;;;;;;;9.38;83.21;101348.92;1694560;84;21529;-76
2021/09/29 07:44:32;;;;;;;7.45;5.12;;;;;;;9.48;83.38;101354.74;1678668;84;21150;-74
2021/09/29 07:47:00;;;;;;;7.65;5.70;;;;;;;9.60;82.84;101357.97;1686606;85;20939;-72
2021/09/29 07:49:26;;;;;;;10.70;6.37;;;;;;;9.62;81.26;101351.89;1687676;85;21043;-73
2021/09/29 07:51:53;;;;;;;8.28;4.62;;;;;;;9.61;80.88;101352.92;1676630;84;20971;-73
2021/09/29 07:54:20;;;;;;;4.72;4.20;;;;;;;9.68;81.02;101356.98;1648447;85;21105;-75
2021/09/29 07:56:47;;;;;;;5.17;4.47;;;;;;;9.74;78.14;101364.20;1662081;85;21003;-74
2021/09/29 07:59:13;;;;;;;5.58;5.08;;;;;;;9.80;76.95;101366.08;1637723;87;21566;-74
2021/09/29 08:01:39;;;;;;;6.25;5.65;;;;;;;9.82;77.33;101363.20;1648411;87;21086;-75
2021/09/29 08:04:06;;;;;;;3.65;3.35;;;;;;;9.91;77.40;101369.53;1635016;87;21148;-74
2021/09/29 08:06:34;;;;;;;8.50;4.87;;;;;;;10.00;74.38;101368.30;1636472;87;21570;-76
2021/09/29 08:09:03;;;;;;;3.58;3.22;;;;;;;10.07;74.03;101362.39;1641856;87;22032;-74
2021/09/29 08:11:30;;;;;;;6.15;3.45;;;;;;;10.17;70.47;101363.36;1660019;85;21026;-74
2021/09/29 08:13:56;;;;;;;4.15;3.75;;;;;;;10.24;69.15;101369.59;1619336;88;21539;-73
2021/09/29 08:16:22;;;;;;;3.65;3.30;;;;;;;10.27;69.41;101376.40;1634189;87;21148;-75
2021/09/29 08:18:50;;;;;;;3.50;2.98;;;;;;;10.31;67.27;101376.33;1647702;86;21061;-73
2021/09/29 08:21:22;;;;;;;4.40;2.75;;;;;;;10.30;66.61;101374.66;1632442;87;21084;-73
2021/09/29 08:23:49;;;;;;;3.15;2.85;;;;;;;10.31;64.59;101379.81;1632089;87;20986;-72
2021/09/29 08:29:22;;;;;;;7.05;4.78;;;;;;;10.34;65.20;101376.73;1572795;91;21179;-74
2021/09/29 08:31:41;;;;;;;3.75;3.42;;;;;;;10.38;65.89;101375.78;1630613;87;21105;-71
2021/09/29 08:34:17;;;;;;;8.08;3.70;;;;;;;10.39;64.98;101380.97;1648309;87;20946;-72
2021/09/29 08:36:55;;;;;;;9.58;2.90;;;;;;;10.43;65.44;101379.52;1626588;87;21567;-73
2021/09/29 08:42:08;;;;;;;5.50;3.67;;;;;;;10.51;63.92;101373.09;1632530;88;21270;-73
2021/09/29 08:44:39;;;;;;;6.47;4.83;;;;;;;10.49;63.61;101373.83;1632117;87;21184;-73
2021/09/29 09:16:34;;;;;;;5.47;3.02;;;;;;;10.83;64.07;101380.83;1637577;86;21148;-75
2021/09/29 09:19:04;;;;;;;3.33;3.08;;;;;;;10.90;63.88;101372.20;1644734;86;21099;-74
2021/09/29 09:21:33;;;;;;;5.67;3.42;;;;;;;10.92;62.93;101370.14;1654550;86;21105;-73
2021/09/29 09:23:59;;;;;;;5.17;4.17;;;;;;;10.91;63.27;101375.20;1660141;85;20997;-75
2021/09/29 09:26:28;;;;;;;5.92;4.20;;;;;;;10.91;63.67;101373.86;1675161;85;21018;-74
2021/09/29 09:29:09;;;;;;;6.35;4.00;;;;;;;10.96;63.99;101368.67;1659462;85;21082;-74
2021/09/29 09:31:37;;;;;;;9.80;4.17;;;;;;;11.00;64.05;101366.38;1656797;86;21540;-74
2021/09/29 09:34:07;;;;;;;13.75;4.08;;;;;;;11.07;64.38;101368.55;1675282;85;21843;-75
2021/09/29 09:36:43;;;;;;;4.00;3.60;;;;;;;11.11;64.40;101367.08;1675363;85;21004;-75
2021/09/29 09:39:14;;;;;;;4.42;3.42;;;;;;;11.15;64.21;101361.56;1659599;85;21042;-75
2021/09/29 09:41:51;;;;;;;7.00;4.17;;;;;;;11.10;63.96;101368.11;1675306;85;21035;-73
2021/09/29 09:44:27;;;;;;;4.58;3.80;;;;;;;11.08;63.79;101371.55;1675225;85;21098;-72
2021/09/29 09:47:08;;;;;;;6.45;4.67;;;;;;;11.04;64.07;101365.73;1673412;85;20966;-72
2021/09/29 09:49:55;;;;;;;7.97;5.35;;;;;;;11.03;64.50;101372.16;1669985;84;21008;-79
2021/09/29 09:52:33;;;;;;;5.37;4.87;;;;;;;10.98;64.90;101363.92;1637042;86;21007;-78
2021/09/29 09:55:08;;;;;;;4.33;3.92;;;;;;;11.02;64.84;101360.27;1648126;86;21022;-76
2021/09/29 09:57:36;;;;;;;7.80;4.53;;;;;;;11.06;64.88;101362.84;1653108;86;21052;-80
2021/09/29 10:00:11;;;;;;;6.92;4.80;;;;;;;11.08;64.72;101368.31;1648968;86;21006;-81
2021/09/29 10:02:45;;;;;;;9.38;8.48;;;;;;;11.10;65.04;101372.15;1670662;85;21059;-81
2021/09/29 10:05:14;;;;;;;6.17;5.50;;;;;;;11.15;65.17;101361.56;1672298;85;21514;-79
2021/09/29 10:07:40;;;;;;;6.70;5.70;;;;;;;11.22;64.49;101367.22;1658403;85;21557;-78
2021/09/29 10:10:18;;;;;;;7.30;3.95;;;;;;;11.26;64.52;101363.61;1658462;86;21113;-84
2021/09/29 10:27:11;;;;;;;14.03;5.35;;;;;;;11.43;63.37;101363.94;1675049;85;21108;-84
2021/09/29 10:29:43;;;;;;;9.20;4.92;;;;;;;11.48;63.58;101364.12;1675307;85;20991;-80
2021/09/29 10:32:19;;;;;;;12.65;4.40;;;;;;;11.54;63.55;101364.62;1656410;86;21115;-80
2021/09/29 10:35:07;;;;;;;10.85;5.40;;;;;;;11.59;63.59;101362.11;1656345;86;21020;-77
2021/09/29 10:37:55;;;;;;;9.40;7.58;;;;;;;11.57;63.16;101363.66;1655125;86;21083;-78
2021/09/29 10:43:03;;;;;;;7.33;5.28;;;;;;;11.55;63.68;101371.67;1647974;85;21115;-79
2021/09/29 10:48:17;;;;;;;8.30;4.72;;;;;;;11.47;64.17;101367.84;1658850;85;21069;-76
2021/09/29 11:10:03;;;;;;;6.20;5.50;;;;;;;11.36;64.56;101358.08;1647964;87;20967;-75
2021/09/29 11:31:22;;;;;;;13.75;7.00;;;;;;;11.38;65.23;101343.86;1631880;87;21178;-84
2021/09/29 12:10:06;;;;;;;14.78;6.22;;;;;;;11.94;65.47;101312.13;1675013;85;21051;-79
2021/09/29 12:12:31;;;;;;;6.83;6.05;;;;;;;12.08;64.75;101308.30;1674230;85;21086;-76
2021/09/29 12:14:59;;;;;;;8.68;5.78;;;;;;;12.14;64.06;101314.14;1675367;85;20951;-75
2021/09/29 12:17:35;;;;;;;6.15;5.55;;;;;;;12.21;64.08;101318.14;1675277;85;21495;-75
2021/09/29 12:20:13;;;;;;;5.97;5.37;;;;;;;12.21;63.37;101318.98;1675086;84;21032;-77
2021/09/29 12:22:52;;;;;;;11.93;6.22;;;;;;;12.20;63.01;101317.84;1675172;85;21066;-77
2021/09/29 12:25:42;;;;;;;12.82;9.18;;;;;;;12.20;63.12;101326.77;1674758;85;21690;-76
2021/09/29 12:31:26;;;;;;;7.67;5.50;;;;;;;12.20;63.06;101323.23;1674836;85;21068;-77
2021/09/29 12:36:29;;;;;;;5.85;5.35;;;;;;;12.21;63.29;101327.59;1659396;85;21515;-77
2021/09/29 12:38:58;;;;;;;10.90;6.30;;;;;;;12.20;62.79;101325.41;1672009;85;21055;-80
2021/09/29 12:41:27;;;;;;;6.08;5.47;;;;;;;12.13;62.29;101327.32;1640514;86;21713;-79
2021/09/29 12:44:08;;;;;;;8.83;5.95;;;;;;;12.11;62.41;101328.08;1647728;86;20968;-79
2021/09/29 12:46:35;;;;;;;6.78;5.45;;;;;;;12.08;62.48;101324.48;1647751;87;20993;-76
2021/09/29 12:49:11;;;;;;;6.72;4.97;;;;;;;12.07;62.58;101329.57;1672529;83;20943;-79
2021/09/29 12:51:33;;;;;;;7.87;5.90;;;;;;;12.06;62.75;101324.39;1652527;85;21005;-79
2021/09/29 12:54:05;;;;;;;5.80;5.20;;;;;;;12.08;63.11;101326.35;1669265;84;20998;-76
2021/09/29 12:56:31;;;;;;;9.73;6.35;;;;;;;12.12;62.99;101330.26;1689341;84;21014;-76
2021/09/29 12:58:57;;;;;;;11.05;6.35;;;;;;;12.13;62.81;101323.27;1704395;84;20992;-79
2021/09/29 13:01:23;;;;;;;5.40;4.90;;;;;;;12.14;62.77;101328.16;1677509;84;20950;-78
2021/09/29 13:03:50;;;;;;;9.40;5.50;;;;;;;12.12;62.52;101318.95;1666135;85;21069;-82
2021/09/29 13:06:16;;;;;;;14.05;5.22;;;;;;;12.08;62.75;101324.48;1666339;85;21050;-80
2021/09/29 13:08:44;;;;;;;5.60;4.90;;;;;;;12.12;62.54;101324.87;1685948;84;21000;-82
2021/09/29 13:11:11;;;;;;;8.80;6.75;;;;;;;12.13;62.23;101325.97;1655741;85;20930;-82
2021/09/29 13:13:38;;;;;;;8.48;6.83;;;;;;;12.09;62.39;101318.54;1644067;86;21015;-78
2021/09/29 13:16:06;;;;;;;10.90;7.22;;;;;;;12.04;62.77;101315.67;1629394;87;21066;-86
2021/09/29 13:24:19;;;;;;;13.10;6.15;;;;;;;11.92;63.64;101322.31;1660592;84;21493;-82
2021/09/29 13:27:05;;;;;;;11.60;6.55;;;;;;;11.87;63.43;101317.27;1676470;82;21033;-74
2021/09/29 13:37:35;;;;;;;9.40;5.83;;;;;;;11.59;64.56;101323.86;1666116;85;21056;-79
2021/09/29 13:40:02;;;;;;;11.30;6.92;;;;;;;11.62;65.13;101324.77;1666154;85;21028;-80
2021/09/29 13:42:29;;;;;;;16.67;6.03;;;;;;;11.64;65.68;101316.47;1666022;85;21035;-77
2021/09/29 13:44:55;;;;;;;8.25;5.83;;;;;;;11.76;65.78;101309.36;1676403;84;21862;-79
2021/09/29 13:47:22;;;;;;;7.65;5.75;;;;;;;11.92;65.17;101309.35;1676410;84;21602;-78
2021/09/29 13:49:48;;;;;;;11.00;7.08;;;;;;;12.08;64.58;101306.95;1726259;83;20976;-76
2021/09/29 13:52:18;;;;;;;9.13;6.22;;;;;;;12.27;63.80;101303.78;1722772;83;21532;-74
2021/09/29 13:54:43;;;;;;;7.87;6.62;;;;;;;12.40;63.59;101313.61;1722486;83;21035;-74
2021/09/29 13:57:19;;;;;;;11.90;6.72;;;;;;;12.52;63.24;101308.60;1704608;83;21206;-88
2021/09/29 13:59:51;;;;;;;8.35;7.17;;;;;;;12.64;62.97;101312.75;1752952;81;20911;-86
2021/09/29 14:30:00;;;;;;;7.58;6.10;;;;;;;11.62;65.33;101315.84;1758323;81;21011;-76